Main page
METAR-TAF:

METAR-TAF

Airports :

Heathrow Airport

London-Heathrow, England

latitude: 51-29N, longitude: 000-27W, elevation: 24 m

Current weather observation

The report was made 18 minutes ago, at 20:20 UTC
Wind 2 kt from the Northwest
Temperature 6°C
Humidity 75%
Pressure 1037 hPa
Visibility 10 km or more
Overcast at a height of 1900 ft

METAR: EGLL 222020Z AUTO 32002KT 9999 OVC019 06/02 Q1037 NOSIG

Time: 20:38 (20:38 UTC)

Forecast

The report was made 3 hours and 44 minutes ago, at 16:54 UTC
Forecast valid from 22 at 18 UTC to 23 at 24 UTC
Wind 4 kt from the Northwest
Visibility 10 km or more
Broken clouds at a height of 2000 ft
Probability 40%
from 23 at 00 UTC to 23 at 11 UTC
Visibility: 8000 m
Probability 30% :
Temporary
from 23 at 00 UTC to 23 at 24 UTC
Broken clouds at a height of 1400 ft

TAF: EGLL 221654Z 2218/2324 31004KT 9999 BKN020 PROB40 2300/2311 8000 PROB30 TEMPO 2300/2324 BKN014

Weather observations and forecasts of more than 4000 airports (METAR and TAF reports).

The available stations are represented by yellow and red dots on the map.

Hover mouse over dot to see the name of the station.

Then click to see weather observations and forecasts.

To change the map : click on the green buttons with a black cross to zoom in, on the green button with a dash to zoom out, or on the green arrows for adjacent maps.


METAR-TAF: